Time;durP1;ratioP1;P1;durP2;ratioP2;P2;SDS_P1;SDS_P2;PMS_P1;PMS_P2;Temp;Humidity;BMP_temperature;BMP_pressure;BME280_temperature;BME280_humidity;BME280_pressure;Samples;Min_cycle;Max_cycle;Signal;HPM_P1;HPM_P2
2022/12/21 00:02:09;;;;;;;29.90;20.47;;;;;;;-0.98;100.00;96280.75;5072460;28;20543;-74
2022/12/21 00:04:36;;;;;;;29.60;17.63;;;;;;;-0.96;100.00;96285.69;5073041;28;20438;-74
2022/12/21 00:07:03;;;;;;;32.33;19.87;;;;;;;-1.15;100.00;96253.47;5061577;28;20429;-75
2022/12/21 00:09:29;;;;;;;34.33;19.13;;;;;;;-0.97;100.00;96273.75;5066433;28;21045;-75
2022/12/21 00:11:56;;;;;;;37.43;19.80;;;;;;;-1.12;100.00;96255.53;5064363;28;20440;-75
2022/12/21 00:14:23;;;;;;;32.97;23.53;;;;;;;-1.25;100.00;96247.19;5058057;28;20490;-74
2022/12/21 00:16:49;;;;;;;31.20;19.80;;;;;;;-1.25;100.00;96246.41;5073604;28;20432;-73
2022/12/21 00:19:16;;;;;;;34.63;21.30;;;;;;;-1.29;100.00;96246.13;5059732;28;20456;-73
2022/12/21 00:21:43;;;;;;;34.53;21.10;;;;;;;-1.35;100.00;96230.78;5062412;28;20479;-73
2022/12/21 00:24:10;;;;;;;31.70;19.90;;;;;;;-1.44;100.00;96207.19;5070268;28;21002;-73
2022/12/21 00:26:37;;;;;;;34.90;20.30;;;;;;;-1.17;100.00;96245.16;5072884;28;20539;-75
2022/12/21 00:29:05;;;;;;;34.30;20.20;;;;;;;-1.18;100.00;96244.38;5071662;28;20485;-74
2022/12/21 00:31:36;;;;;;;33.83;21.13;;;;;;;-1.11;100.00;96241.53;5050684;28;20874;-74
2022/12/21 00:34:03;;;;;;;28.70;19.63;;;;;;;-1.23;100.00;96234.75;5072166;28;20467;-74
2022/12/21 00:36:31;;;;;;;27.57;19.57;;;;;;;-1.18;100.00;96225.44;5071507;28;20444;-74
2022/12/21 00:38:58;;;;;;;31.47;18.93;;;;;;;-1.17;100.00;96230.38;5071236;28;20456;-75
2022/12/21 00:41:26;;;;;;;31.27;19.33;;;;;;;-1.18;100.00;96222.84;5060976;28;20436;-75
2022/12/21 00:43:54;;;;;;;32.10;20.50;;;;;;;-1.12;100.00;96220.00;5071027;28;20551;-74
2022/12/21 00:46:29;;;;;;;31.00;20.13;;;;;;;-1.14;100.00;96208.31;5071539;28;20428;-74
2022/12/21 00:48:57;;;;;;;29.60;19.60;;;;;;;-1.28;100.00;96179.50;5074510;28;20433;-74
2022/12/21 00:51:25;;;;;;;30.60;19.53;;;;;;;-1.19;100.00;96203.91;5058524;28;20443;-74
2022/12/21 00:53:54;;;;;;;33.80;20.80;;;;;;;-1.07;100.00;96219.22;5061206;28;20468;-74
2022/12/21 00:56:21;;;;;;;29.10;20.33;;;;;;;-1.07;100.00;96214.03;5074167;28;20464;-73
2022/12/21 00:58:48;;;;;;;27.57;19.93;;;;;;;-1.22;100.00;96191.44;5072725;28;20500;-73
2022/12/21 01:01:29;;;;;;;29.47;18.37;;;;;;;-0.79;100.00;96231.78;5071372;28;20490;-76
2022/12/21 01:03:56;;;;;;;25.57;17.37;;;;;;;-1.09;100.00;96180.59;5062800;28;20467;-74
2022/12/21 01:06:26;;;;;;;33.27;21.13;;;;;;;-0.88;100.00;96220.34;5071728;28;20467;-74
2022/12/21 01:08:54;;;;;;;26.10;17.80;;;;;;;-0.91;100.00;96220.84;5072711;28;20432;-74
2022/12/21 01:11:23;;;;;;;35.93;20.57;;;;;;;-1.05;100.00;96202.41;5049335;28;20440;-74
2022/12/21 01:13:51;;;;;;;43.37;24.63;;;;;;;-0.84;100.00;96220.59;5067519;28;20450;-73
2022/12/21 01:16:23;;;;;;;42.90;25.73;;;;;;;-0.82;100.00;96219.31;5059203;28;20435;-73
2022/12/21 01:18:51;;;;;;;51.13;23.50;;;;;;;-0.92;100.00;96201.13;5076185;28;20445;-73
2022/12/21 01:21:26;;;;;;;36.97;20.27;;;;;;;-0.77;100.00;96223.75;5061733;28;20480;-73
2022/12/21 01:23:54;;;;;;;42.30;25.90;;;;;;;-0.95;100.00;96212.00;5065622;28;20464;-74
2022/12/21 01:26:23;;;;;;;47.20;25.73;;;;;;;-0.78;100.00;96229.97;5080497;28;20437;-74
2022/12/21 01:28:50;;;;;;;47.37;27.10;;;;;;;-0.78;100.00;96227.38;5070083;28;20947;-74
2022/12/21 01:31:20;;;;;;;48.30;29.00;;;;;;;-0.96;100.00;96197.47;5071470;28;20420;-74
2022/12/21 01:33:47;;;;;;;40.93;26.10;;;;;;;-0.92;100.00;96214.13;5072745;28;20513;-74
2022/12/21 01:36:15;;;;;;;37.13;20.40;;;;;;;-0.80;100.00;96225.06;5071338;28;20460;-74
2022/12/21 01:38:43;;;;;;;32.07;20.17;;;;;;;-0.55;100.00;96252.06;5051381;28;20494;-74
2022/12/21 01:41:18;;;;;;;36.10;20.40;;;;;;;-0.56;100.00;96247.91;5061552;28;21006;-74
2022/12/21 01:44:21;;;;;;;33.73;19.33;;;;;;;-0.61;100.00;96257.25;5069635;28;20456;-74
2022/12/21 01:46:48;;;;;;;30.67;20.07;;;;;;;-0.68;100.00;96222.97;5069808;28;20868;-74
2022/12/21 01:49:26;;;;;;;36.53;21.80;;;;;;;-0.46;100.00;96238.34;5083133;28;20431;-74
2022/12/21 01:52:01;;;;;;;29.10;19.43;;;;;;;-0.70;100.00;96227.66;5069700;28;20539;-74
2022/12/21 01:54:34;;;;;;;32.60;22.53;;;;;;;-0.57;100.00;96257.53;5053137;28;20523;-74
2022/12/21 01:57:05;;;;;;;27.33;19.00;;;;;;;-0.65;100.00;96253.63;5079060;28;20523;-74
2022/12/21 01:59:38;;;;;;;33.37;22.40;;;;;;;-0.84;100.00;96233.59;5069544;28;20559;-74
2022/12/21 02:02:11;;;;;;;37.77;23.20;;;;;;;-0.78;100.00;96241.13;5071243;28;20517;-74
2022/12/21 02:04:40;;;;;;;41.83;24.87;;;;;;;-0.79;100.00;96249.97;5070973;28;20416;-74
2022/12/21 02:07:07;;;;;;;39.60;22.20;;;;;;;-0.96;100.00;96211.22;5078650;28;20432;-74
2022/12/21 02:09:36;;;;;;;42.50;22.37;;;;;;;-1.12;100.00;96173.31;5057636;28;20432;-74
2022/12/21 02:12:06;;;;;;;45.70;23.03;;;;;;;-0.79;100.00;96229.19;5070297;28;20456;-74
2022/12/21 02:14:38;;;;;;;49.87;26.53;;;;;;;-0.77;100.00;96224.53;5062843;28;20433;-74
2022/12/21 02:17:11;;;;;;;49.30;28.10;;;;;;;-0.79;100.00;96221.41;5062731;28;20464;-74
2022/12/21 02:20:18;;;;;;;39.63;24.03;;;;;;;-0.82;100.00;96219.31;5059123;28;20849;-74
2022/12/21 02:22:54;;;;;;;35.93;23.27;;;;;;;-0.82;100.00;96228.91;5056276;28;20827;-74
2022/12/21 02:25:26;;;;;;;33.53;22.37;;;;;;;-0.79;100.00;96231.78;5057539;28;20448;-74
2022/12/21 02:28:27;;;;;;;36.30;21.60;;;;;;;-0.69;100.00;96238.81;5069699;28;20943;-74
2022/12/21 02:31:18;;;;;;;38.20;22.67;;;;;;;-0.56;100.00;96227.94;5056552;28;20443;-74
2022/12/21 02:33:51;;;;;;;34.47;20.30;;;;;;;-0.63;100.00;96233.38;5065503;28;20471;-74
2022/12/21 02:36:41;;;;;;;33.03;21.30;;;;;;;-0.64;100.00;96244.81;5060438;28;20442;-74
2022/12/21 02:39:33;;;;;;;36.33;21.60;;;;;;;-0.53;100.00;96237.81;5047004;28;20436;-74
2022/12/21 02:44:12;;;;;;;33.10;21.80;;;;;;;-0.54;100.00;96238.81;5058334;28;20460;-74
2022/12/21 02:45:20;;;;;;;35.87;20.67;;;;;;;-0.61;100.00;96226.13;5069091;28;20428;-74
2022/12/21 02:48:05;;;;;;;35.20;22.40;;;;;;;-0.65;100.00;96229.50;5085726;28;20916;-74
2022/12/21 02:50:40;;;;;;;46.50;23.37;;;;;;;-0.88;100.00;96198.81;5041427;28;20813;-74
2022/12/21 02:53:21;;;;;;;44.17;23.47;;;;;;;-0.79;100.00;96197.28;5038587;28;20452;-74
2022/12/21 02:55:48;;;;;;;45.27;25.40;;;;;;;-0.79;100.00;96210.25;5069100;28;20439;-74
2022/12/21 02:58:20;;;;;;;48.23;25.40;;;;;;;-0.68;100.00;96214.41;5070418;28;20972;-74
2022/12/21 03:01:20;;;;;;;56.07;28.87;;;;;;;-0.88;100.00;96188.44;5070468;28;21009;-74
2022/12/21 03:04:28;;;;;;;46.20;24.97;;;;;;;-0.69;100.00;96218.81;5049612;28;20457;-74
2022/12/21 03:07:22;;;;;;;42.30;22.53;;;;;;;-0.75;100.00;96204.28;4986082;28;20443;-74
2022/12/21 03:10:17;;;;;;;48.43;24.80;;;;;;;-0.93;100.00;96190.00;5055859;28;20879;-74
2022/12/21 03:13:08;;;;;;;42.57;24.40;;;;;;;-0.81;100.00;96200.09;5051269;28;20460;-74
2022/12/21 03:15:52;;;;;;;41.50;24.47;;;;;;;-1.41;100.00;96115.16;5050168;28;20791;-74
2022/12/21 03:18:30;;;;;;;36.60;24.53;;;;;;;-0.86;100.00;96192.31;5070576;28;20877;-74
2022/12/21 03:21:19;;;;;;;36.67;21.43;;;;;;;-0.92;100.00;96183.75;5063317;28;21046;-74
2022/12/21 03:23:55;;;;;;;38.80;21.90;;;;;;;-0.83;100.00;96188.44;5049091;28;20437;-74
2022/12/21 03:26:38;;;;;;;36.43;20.10;;;;;;;-0.98;100.00;96158.81;5049191;28;20409;-74
2022/12/21 03:29:10;;;;;;;41.43;21.23;;;;;;;-0.77;100.00;96185.59;5049017;28;20417;-74
2022/12/21 03:31:42;;;;;;;38.60;21.10;;;;;;;-0.75;100.00;96182.75;5049887;28;20455;-74
2022/12/21 03:34:20;;;;;;;30.53;21.53;;;;;;;-0.75;100.00;96182.75;5048928;28;20478;-74
2022/12/21 03:36:51;;;;;;;30.97;20.90;;;;;;;-0.84;100.00;96174.69;5049053;28;20497;-74
2022/12/21 03:39:22;;;;;;;40.40;22.80;;;;;;;-0.82;100.00;96170.00;5049046;28;20997;-74
2022/12/21 03:42:01;;;;;;;52.13;27.47;;;;;;;-0.96;100.00;96150.78;5045759;28;20983;-74
2022/12/21 03:44:37;;;;;;;50.83;26.83;;;;;;;-1.10;100.00;96121.97;5049155;28;20443;-74
2022/12/21 03:47:20;;;;;;;39.00;24.40;;;;;;;-0.86;100.00;96144.84;5050891;28;20968;-74
2022/12/21 03:49:53;;;;;;;48.43;26.40;;;;;;;-0.85;100.00;96134.19;5082335;28;20439;-74
2022/12/21 03:52:24;;;;;;;42.47;24.87;;;;;;;-0.80;100.00;96147.19;5072598;28;20869;-74
2022/12/21 03:55:06;;;;;;;46.00;24.50;;;;;;;-0.80;100.00;96152.38;5068520;28;20465;-74
2022/12/21 03:57:34;;;;;;;40.77;23.50;;;;;;;-0.92;100.00;96118.13;5093877;28;20451;-74
2022/12/21 04:00:02;;;;;;;42.80;24.63;;;;;;;-0.89;100.00;96122.78;5051908;28;20461;-74
2022/12/21 04:02:43;;;;;;;40.03;22.13;;;;;;;-0.81;100.00;96134.44;5053315;28;20436;-74
2022/12/21 04:05:37;;;;;;;37.90;24.13;;;;;;;-0.82;100.00;96131.06;5052068;28;20500;-74
2022/12/21 04:08:07;;;;;;;46.70;21.97;;;;;;;-0.93;100.00;96111.38;5050172;28;20477;-74
2022/12/21 04:10:33;;;;;;;40.97;23.50;;;;;;;-1.01;100.00;96107.47;5051899;28;20472;-74
2022/12/21 04:13:00;;;;;;;41.10;23.10;;;;;;;-1.06;100.00;96106.69;5053232;28;20468;-74
2022/12/21 04:18:13;;;;;;;39.57;22.27;;;;;;;-1.40;100.00;96076.00;5053016;28;20515;-74
2022/12/21 04:20:40;;;;;;;39.80;22.80;;;;;;;-1.10;100.00;96126.38;5051364;28;21023;-74
2022/12/21 04:28:39;;;;;;;41.27;24.33;;;;;;;-1.06;100.00;96096.31;5053154;28;20536;-74
2022/12/21 04:31:16;;;;;;;38.77;24.30;;;;;;;-0.87;100.00;96122.53;5053123;28;20436;-74
2022/12/21 04:33:43;;;;;;;54.63;27.73;;;;;;;-1.05;100.00;96090.09;5051409;28;20437;-74
2022/12/21 04:38:55;;;;;;;48.30;28.87;;;;;;;-1.06;100.00;96094.50;5051307;28;20512;-74
2022/12/21 04:41:22;;;;;;;43.23;26.00;;;;;;;-0.80;100.00;96123.84;5034856;28;20548;-74
2022/12/21 04:43:48;;;;;;;47.17;24.70;;;;;;;-0.78;100.00;96124.34;5051172;28;20437;-74
2022/12/21 04:46:16;;;;;;;39.70;23.27;;;;;;;-0.80;100.00;96118.66;5051101;28;20439;-74
2022/12/21 04:48:44;;;;;;;40.93;24.43;;;;;;;-0.75;100.00;96123.84;5034686;28;20437;-74
2022/12/21 04:51:17;;;;;;;47.40;28.00;;;;;;;-0.69;100.00;96124.59;5064689;28;20498;-75
2022/12/21 04:53:44;;;;;;;35.97;23.33;;;;;;;-0.88;100.00;96095.78;5034623;28;20774;-75
2022/12/21 04:56:11;;;;;;;51.33;27.97;;;;;;;-0.86;100.00;96096.31;5051249;28;20461;-75
2022/12/21 04:58:38;;;;;;;46.90;27.10;;;;;;;-0.87;100.00;96105.13;5059764;28;20456;-72
2022/12/21 05:01:13;;;;;;;40.97;26.87;;;;;;;-0.72;100.00;96125.13;5075015;28;20547;-72
2022/12/21 05:03:40;;;;;;;45.00;24.77;;;;;;;-0.67;100.00;96132.91;5054194;28;20451;-72
2022/12/21 05:06:08;;;;;;;46.40;26.63;;;;;;;-0.74;100.00;96111.63;5070614;28;20424;-72
2022/12/21 05:08:36;;;;;;;42.37;25.30;;;;;;;-0.56;100.00;96131.09;5070663;28;20456;-73
2022/12/21 05:11:16;;;;;;;44.60;24.97;;;;;;;-0.54;100.00;96131.59;5068183;28;20516;-73
2022/12/21 05:13:43;;;;;;;40.37;24.87;;;;;;;-0.63;100.00;96120.97;5034030;28;20460;-73
2022/12/21 05:16:12;;;;;;;50.73;27.53;;;;;;;-0.66;100.00;96118.91;5050658;28;20487;-73
2022/12/21 05:18:39;;;;;;;43.33;24.73;;;;;;;-0.85;100.00;96102.28;5051968;28;20421;-73
2022/12/21 05:21:06;;;;;;;40.70;23.47;;;;;;;-0.88;100.00;96095.03;5050227;28;20488;-73
2022/12/21 05:23:33;;;;;;;44.07;24.90;;;;;;;-0.79;100.00;96094.25;5051903;28;20441;-73
2022/12/21 05:26:01;;;;;;;44.23;25.60;;;;;;;-0.83;100.00;96100.19;5054807;28;20544;-75
2022/12/21 05:28:37;;;;;;;47.90;27.93;;;;;;;-0.78;100.00;96113.19;5050484;28;20413;-74
2022/12/21 05:31:04;;;;;;;39.90;26.03;;;;;;;-0.83;100.00;96103.56;5051917;28;20821;-74
2022/12/21 05:33:31;;;;;;;50.33;27.97;;;;;;;-0.79;100.00;96103.84;5050326;28;20449;-74
2022/12/21 05:36:02;;;;;;;45.83;24.90;;;;;;;-0.82;100.00;96099.94;5050018;28;20436;-74
2022/12/21 05:38:29;;;;;;;53.03;25.57;;;;;;;-0.88;100.00;96095.03;5033444;28;20528;-74
2022/12/21 05:40:56;;;;;;;53.80;27.37;;;;;;;-0.87;100.00;96102.53;5049850;28;20894;-74
2022/12/21 05:43:22;;;;;;;46.23;27.47;;;;;;;-0.95;100.00;96083.06;5051387;28;20447;-74
2022/12/21 05:45:49;;;;;;;52.97;27.80;;;;;;;-0.83;100.00;96102.78;5049999;28;20550;-74
2022/12/21 05:48:16;;;;;;;61.77;28.20;;;;;;;-0.92;100.00;96090.34;5049967;28;20429;-74
2022/12/21 05:50:43;;;;;;;49.93;26.97;;;;;;;-1.00;100.00;96075.28;5049940;28;20444;-74
2022/12/21 05:53:10;;;;;;;53.47;28.63;;;;;;;-1.11;100.00;96068.53;5050180;28;20453;-74
2022/12/21 05:55:43;;;;;;;47.07;25.27;;;;;;;-0.84;100.00;96098.66;5050029;28;20445;-74
2022/12/21 05:58:14;;;;;;;48.33;25.50;;;;;;;-0.87;100.00;96089.56;5033322;28;20433;-74
2022/12/21 06:00:40;;;;;;;51.77;29.70;;;;;;;-0.84;100.00;96093.44;5049668;28;20458;-74
2022/12/21 06:03:07;;;;;;;45.33;27.27;;;;;;;-0.97;100.00;96071.41;5050939;28;20445;-74
2022/12/21 06:05:35;;;;;;;37.03;25.47;;;;;;;-1.21;100.00;96042.56;5049509;28;20884;-74
2022/12/21 06:08:02;;;;;;;41.93;25.03;;;;;;;-1.07;100.00;96066.19;5049895;28;20421;-74
2022/12/21 06:10:29;;;;;;;44.57;26.40;;;;;;;-0.95;100.00;96093.44;5050409;28;20449;-74
2022/12/21 06:12:56;;;;;;;52.97;28.33;;;;;;;-1.15;100.00;96064.91;5049441;28;20858;-74
2022/12/21 06:15:23;;;;;;;46.07;27.50;;;;;;;-0.99;100.00;96081.25;5049647;28;20417;-74
2022/12/21 06:17:50;;;;;;;47.80;28.23;;;;;;;-0.92;100.00;96076.59;5049566;28;20838;-74
2022/12/21 06:20:17;;;;;;;45.23;24.30;;;;;;;-0.97;100.00;96079.94;5049396;28;20437;-74
2022/12/21 06:22:44;;;;;;;51.17;27.87;;;;;;;-1.03;100.00;96065.44;5032901;28;20465;-74
2022/12/21 06:25:11;;;;;;;48.67;25.77;;;;;;;-0.84;100.00;96083.06;5050990;28;20835;-74
2022/12/21 06:27:38;;;;;;;48.37;25.20;;;;;;;-0.79;100.00;96089.06;5049477;28;20451;-74
2022/12/21 06:30:05;;;;;;;47.73;26.17;;;;;;;-0.76;100.00;96093.72;5050944;28;20508;-74
2022/12/21 06:32:32;;;;;;;43.03;25.73;;;;;;;-0.91;100.00;96078.94;5056832;28;20524;-74
2022/12/21 06:34:58;;;;;;;43.20;26.10;;;;;;;-0.79;100.00;96094.25;5052850;28;20425;-74
2022/12/21 06:37:25;;;;;;;52.50;27.57;;;;;;;-0.77;100.00;96107.75;5086329;28;20490;-73
2022/12/21 06:39:51;;;;;;;53.37;29.67;;;;;;;-0.76;100.00;96098.16;5071011;28;20836;-72
2022/12/21 06:42:18;;;;;;;59.17;33.40;;;;;;;-0.84;100.00;96096.06;5086257;28;20466;-72
2022/12/21 06:44:45;;;;;;;54.80;31.57;;;;;;;-0.95;100.00;96077.09;5069848;28;20784;-72
2022/12/21 06:47:12;;;;;;;51.47;30.00;;;;;;;-1.05;100.00;96070.09;5069666;28;20497;-72
2022/12/21 06:49:38;;;;;;;60.30;30.53;;;;;;;-0.84;100.00;96101.25;5069508;28;20815;-72
2022/12/21 06:52:05;;;;;;;55.60;30.30;;;;;;;-0.84;100.00;96094.22;5069424;28;20819;-72
2022/12/21 06:54:32;;;;;;;49.47;31.23;;;;;;;-0.90;100.00;96093.47;5070815;28;20478;-72
2022/12/21 06:56:59;;;;;;;69.77;32.17;;;;;;;-0.97;100.00;96077.34;5078827;28;20481;-71
2022/12/21 06:59:26;;;;;;;50.87;30.57;;;;;;;-0.92;100.00;96089.56;5069433;28;20432;-74
2022/12/21 07:01:52;;;;;;;63.27;30.27;;;;;;;-1.17;100.00;96061.78;5068712;28;20452;-74
2022/12/21 07:04:19;;;;;;;58.20;30.00;;;;;;;-0.95;100.00;96088.25;5053739;28;20937;-73
2022/12/21 07:06:46;;;;;;;56.27;29.10;;;;;;;-0.85;100.00;96099.69;5057734;28;20547;-73
2022/12/21 07:09:12;;;;;;;50.47;28.67;;;;;;;-1.02;100.00;96063.63;5069464;28;20443;-73
2022/12/21 07:11:39;;;;;;;61.83;30.03;;;;;;;-0.80;100.00;96099.69;5070079;28;20944;-73
2022/12/21 07:14:06;;;;;;;57.97;30.13;;;;;;;-0.89;100.00;96083.88;5070918;28;20494;-73
2022/12/21 07:16:32;;;;;;;53.57;29.20;;;;;;;-1.00;100.00;96075.28;5054107;28;20447;-73
2022/12/21 07:18:59;;;;;;;68.27;30.67;;;;;;;-0.74;100.00;96099.44;5071582;28;20443;-73
2022/12/21 07:21:26;;;;;;;49.70;30.50;;;;;;;-0.87;100.00;96079.19;5079229;28;20572;-74
2022/12/21 07:23:53;;;;;;;58.30;28.10;;;;;;;-0.87;100.00;96081.00;5070486;28;20511;-72
2022/12/21 07:26:22;;;;;;;46.50;26.90;;;;;;;-0.74;100.00;96086.47;5073249;28;20444;-72
2022/12/21 07:28:49;;;;;;;53.43;30.70;;;;;;;-0.59;100.00;96111.63;5077259;28;20424;-72
2022/12/21 07:31:21;;;;;;;45.03;26.10;;;;;;;-0.57;100.00;96103.56;5073844;28;20936;-73
2022/12/21 07:33:49;;;;;;;49.67;28.70;;;;;;;-0.55;100.00;96107.47;5073365;28;20540;-73
2022/12/21 07:36:16;;;;;;;52.47;33.20;;;;;;;-0.53;100.00;96102.81;5073618;28;20523;-73
2022/12/21 07:38:43;;;;;;;62.57;30.53;;;;;;;-0.63;100.00;96106.19;5073726;28;20500;-73
2022/12/21 07:41:14;;;;;;;54.37;31.67;;;;;;;-0.62;100.00;96106.97;5074434;28;20556;-74
2022/12/21 07:43:41;;;;;;;55.37;29.20;;;;;;;-0.58;100.00;96104.63;5073371;28;20883;-74
2022/12/21 07:46:16;;;;;;;52.93;28.67;;;;;;;-0.51;100.00;96092.94;5058226;28;20794;-74
2022/12/21 07:48:43;;;;;;;53.83;30.80;;;;;;;-0.64;100.00;96070.88;5081241;28;20522;-74
2022/12/21 07:51:10;;;;;;;47.87;27.23;;;;;;;-0.68;100.00;96064.63;5061572;28;20446;-72
2022/12/21 07:53:37;;;;;;;44.63;26.87;;;;;;;-0.43;100.00;96104.59;5073527;28;20562;-72
2022/12/21 07:56:13;;;;;;;42.63;27.23;;;;;;;-0.45;100.00;96104.09;5081354;28;20427;-72
2022/12/21 07:58:40;;;;;;;56.67;28.90;;;;;;;-0.48;100.00;96105.41;5072189;28;20467;-72
2022/12/21 08:01:13;;;;;;;44.97;25.77;;;;;;;-0.53;100.00;96102.03;5071901;28;20452;-72
2022/12/21 08:03:42;;;;;;;56.03;28.80;;;;;;;-0.48;100.00;96113.19;5072629;28;20987;-73
2022/12/21 08:06:09;;;;;;;56.17;27.77;;;;;;;-0.65;100.00;96081.53;5072526;28;20460;-73
2022/12/21 08:08:36;;;;;;;49.57;27.87;;;;;;;-0.55;100.00;96088.50;5073354;28;20828;-73
2022/12/21 08:11:03;;;;;;;56.60;29.47;;;;;;;-0.40;100.00;96106.66;5074732;28;20416;-73
2022/12/21 08:13:29;;;;;;;41.50;26.23;;;;;;;-0.38;100.00;96107.22;5075982;28;20517;-73
2022/12/21 08:16:05;;;;;;;40.17;25.60;;;;;;;-0.47;100.00;96091.38;5073698;28;20447;-73
2022/12/21 08:18:32;;;;;;;43.47;25.17;;;;;;;-0.34;100.00;96096.03;5075863;28;20493;-73
2022/12/21 08:20:59;;;;;;;41.73;24.83;;;;;;;-0.38;100.00;96102.81;5057412;28;21049;-73
2022/12/21 08:23:26;;;;;;;44.97;25.57;;;;;;;-0.53;100.00;96086.47;5073827;28;20437;-73
2022/12/21 08:25:53;;;;;;;48.90;26.30;;;;;;;-0.36;100.00;96110.31;5045258;28;20464;-74
2022/12/21 08:28:20;;;;;;;49.33;28.60;;;;;;;-0.51;100.00;96086.97;5057798;28;20472;-74
2022/12/21 08:30:47;;;;;;;50.33;27.10;;;;;;;-0.60;100.00;96069.31;5075963;28;20428;-74
2022/12/21 08:33:13;;;;;;;53.63;30.93;;;;;;;-0.67;100.00;96060.22;5073807;28;20919;-73
2022/12/21 08:35:43;;;;;;;46.03;26.07;;;;;;;-0.45;100.00;96084.09;5074931;28;20512;-73
2022/12/21 08:38:10;;;;;;;44.87;24.40;;;;;;;-0.27;100.00;96102.75;5077426;28;20460;-73
2022/12/21 08:41:04;;;;;;;49.57;26.10;;;;;;;-0.41;100.00;96079.94;5076117;28;20443;-73
2022/12/21 08:43:33;;;;;;;44.00;26.10;;;;;;;-0.23;100.00;96091.59;5058868;28;20453;-73
2022/12/21 08:46:08;;;;;;;51.83;26.77;;;;;;;-0.23;100.00;96088.22;5058636;28;20535;-73
2022/12/21 08:48:36;;;;;;;44.60;26.50;;;;;;;-0.41;100.00;96072.13;5079845;28;20423;-74
2022/12/21 08:51:05;;;;;;;43.57;25.67;;;;;;;-0.20;100.00;96087.69;5081759;28;20458;-72
2022/12/21 08:53:32;;;;;;;40.47;26.17;;;;;;;-0.39;100.00;96061.50;5074329;28;20448;-72
2022/12/21 08:55:59;;;;;;;45.03;25.20;;;;;;;-0.19;100.00;96091.84;5081779;28;20465;-71
2022/12/21 08:58:26;;;;;;;45.53;25.57;;;;;;;-0.22;100.00;96087.97;5072859;28;20516;-72
2022/12/21 09:00:54;;;;;;;47.33;27.70;;;;;;;-0.18;100.00;96088.22;5072512;28;20482;-72
2022/12/21 09:03:22;;;;;;;45.07;26.93;;;;;;;-0.67;100.00;96022.09;5060469;28;21054;-73
2022/12/21 09:05:57;;;;;;;43.70;27.43;;;;;;;-0.18;100.00;96093.41;5073307;28;20776;-73
2022/12/21 09:08:33;;;;;;;47.47;28.90;;;;;;;-0.27;100.00;96079.38;5074165;28;20452;-72
2022/12/21 09:11:05;;;;;;;59.07;28.70;;;;;;;-0.15;100.00;96098.84;5073011;28;20547;-74
2022/12/21 09:13:32;;;;;;;44.17;26.47;;;;;;;-0.11;100.00;96101.72;5072099;28;20462;-71
2022/12/21 09:15:59;;;;;;;46.40;30.13;;;;;;;-0.16;100.00;96093.91;5073350;28;20867;-71
2022/12/21 09:18:26;;;;;;;53.57;30.07;;;;;;;-0.11;100.00;96099.13;5072800;28;20420;-74
2022/12/21 09:20:54;;;;;;;49.80;30.00;;;;;;;-0.30;100.00;96078.09;5071248;28;20478;-72
2022/12/21 09:23:21;;;;;;;51.17;28.67;;;;;;;-0.28;100.00;96070.81;5055012;28;20870;-72
2022/12/21 09:25:48;;;;;;;49.80;29.40;;;;;;;-0.33;100.00;96061.22;5054881;28;20428;-72
2022/12/21 09:28:16;;;;;;;63.77;32.30;;;;;;;-0.14;100.00;96097.03;5072090;28;21002;-72
2022/12/21 09:30:42;;;;;;;58.13;30.67;;;;;;;-0.19;100.00;96086.66;5073211;28;20436;-72
2022/12/21 09:33:10;;;;;;;54.93;30.80;;;;;;;-0.13;100.00;96093.41;5073340;28;20445;-73
2022/12/21 09:35:38;;;;;;;56.03;31.23;;;;;;;-0.46;100.00;96051.38;5073049;28;20523;-73
2022/12/21 09:38:05;;;;;;;48.60;29.40;;;;;;;-0.13;100.00;96096.00;5056453;28;20782;-73
2022/12/21 09:40:33;;;;;;;59.53;34.07;;;;;;;-0.11;100.00;96099.13;5074022;28;20485;-73
2022/12/21 09:43:22;;;;;;;66.30;35.37;;;;;;;-0.07;100.00;96089.75;5072944;28;21015;-73
2022/12/21 09:45:56;;;;;;;58.93;31.40;;;;;;;-0.05;100.00;96088.44;5073388;28;20923;-73
2022/12/21 09:48:29;;;;;;;60.27;31.57;;;;;;;-0.17;100.00;96074.94;5061048;28;20527;-73
2022/12/21 09:51:20;;;;;;;61.90;32.17;;;;;;;0.04;100.00;96085.31;5080879;28;20982;-73
2022/12/21 09:53:52;;;;;;;48.73;28.40;;;;;;;-0.30;100.00;96039.16;5071715;28;20440;-73
2022/12/21 09:56:23;;;;;;;57.83;31.13;;;;;;;0.02;100.00;96077.00;5081746;28;20451;-73
2022/12/21 09:58:51;;;;;;;53.90;29.20;;;;;;;0.05;100.00;96076.47;5072182;28;20440;-73
2022/12/21 10:01:27;;;;;;;50.87;27.07;;;;;;;0.07;100.00;96069.19;5073680;28;20530;-73
2022/12/21 10:04:09;;;;;;;49.87;26.73;;;;;;;0.10;100.00;96060.84;5073718;28;20450;-72
2022/12/21 10:06:39;;;;;;;47.53;29.83;;;;;;;0.12;100.00;96066.56;5072878;28;20468;-72
2022/12/21 10:09:25;;;;;;;55.43;31.70;;;;;;;0.14;100.00;96067.88;5072003;28;20428;-73
2022/12/21 10:12:21;;;;;;;53.10;31.13;;;;;;;0.16;100.00;96068.38;5072910;28;20428;-73
2022/12/21 10:14:48;;;;;;;47.57;30.77;;;;;;;0.14;100.00;96067.09;5039598;28;20440;-72
2022/12/21 10:17:20;;;;;;;62.10;29.33;;;;;;;0.17;100.00;96066.56;5072541;28;20472;-73
2022/12/21 10:20:26;;;;;;;60.53;29.07;;;;;;;0.20;100.00;96063.41;5072958;28;20443;-73
2022/12/21 10:23:02;;;;;;;48.17;28.77;;;;;;;0.05;100.00;96040.88;5072433;28;20468;-73
2022/12/21 10:25:39;;;;;;;51.73;29.40;;;;;;;0.13;100.00;96052.50;5072124;28;20475;-73
2022/12/21 10:28:44;;;;;;;54.23;29.17;;;;;;;0.23;100.00;96055.84;5077395;28;20933;-73
2022/12/21 10:31:35;;;;;;;47.60;27.17;;;;;;;0.25;100.00;96047.78;5062820;28;20420;-72
2022/12/21 10:34:13;;;;;;;44.97;27.53;;;;;;;0.29;100.00;96054.03;5041948;28;20460;-73
2022/12/21 10:36:41;;;;;;;56.17;29.37;;;;;;;0.28;100.00;96052.47;5073414;28;20523;-72
2022/12/21 10:39:12;;;;;;;49.73;27.13;;;;;;;0.26;100.00;96033.75;5072521;28;20470;-72
2022/12/21 10:42:03;;;;;;;53.13;27.90;;;;;;;0.25;100.00;96032.19;5074614;28;21091;-72
2022/12/21 10:44:30;;;;;;;51.60;29.07;;;;;;;0.16;100.00;96010.41;5076895;28;20523;-72
2022/12/21 10:46:57;;;;;;;44.37;27.20;;;;;;;0.16;100.00;96003.41;5058442;28;20901;-72
2022/12/21 10:49:36;;;;;;;51.53;26.73;;;;;;;0.47;100.00;96042.22;5088149;28;20471;-72
2022/12/21 10:52:43;;;;;;;43.43;27.27;;;;;;;0.45;100.00;96044.31;5045833;28;20510;-72
2022/12/21 10:55:19;;;;;;;47.27;26.53;;;;;;;0.49;100.00;96040.91;5080885;28;20444;-72
2022/12/21 10:57:47;;;;;;;49.03;28.10;;;;;;;0.48;100.00;96033.38;5065824;28;20474;-72
2022/12/21 11:00:29;;;;;;;43.93;27.90;;;;;;;0.49;100.00;96033.09;5075442;28;20485;-73
2022/12/21 11:03:00;;;;;;;47.07;28.20;;;;;;;0.44;100.00;96019.38;5059469;28;20468;-72
2022/12/21 11:05:33;;;;;;;46.70;29.73;;;;;;;0.53;100.00;96028.13;5058445;28;20500;-72
2022/12/21 11:08:23;;;;;;;42.87;26.80;;;;;;;0.43;100.00;96030.81;5075254;28;20486;-72
2022/12/21 11:10:55;;;;;;;46.60;29.37;;;;;;;0.45;100.00;96015.72;5075775;28;20530;-73
2022/12/21 11:13:26;;;;;;;44.93;29.53;;;;;;;0.39;100.00;96003.78;5075909;28;20536;-72
2022/12/21 11:16:10;;;;;;;44.33;27.90;;;;;;;0.27;100.00;95978.91;5076391;28;20416;-72
2022/12/21 11:18:41;;;;;;;50.47;30.03;;;;;;;0.49;100.00;96009.69;5065937;28;20968;-71
2022/12/21 11:21:37;;;;;;;42.93;24.10;;;;;;;0.54;100.00;96008.91;5075861;28;20422;-72
2022/12/21 11:24:11;;;;;;;71.47;27.37;;;;;;;0.58;100.00;96009.91;5059056;28;20517;-72
2022/12/21 11:26:44;;;;;;;47.63;27.60;;;;;;;0.57;100.00;96010.97;5075364;28;20424;-72
2022/12/21 11:29:23;;;;;;;46.87;30.10;;;;;;;0.55;100.00;96002.66;5063557;28;20808;-73
2022/12/21 11:31:55;;;;;;;47.37;29.27;;;;;;;0.44;100.00;95980.38;5062254;28;20436;-73
2022/12/21 11:34:37;;;;;;;50.57;29.67;;;;;;;0.54;100.00;95980.31;5075915;28;20441;-72
2022/12/21 11:37:21;;;;;;;51.13;28.53;;;;;;;0.53;100.00;95978.72;5057850;28;20485;-73
2022/12/21 11:39:48;;;;;;;45.43;25.80;;;;;;;0.48;100.00;95974.34;5073988;28;20420;-73
2022/12/21 11:42:18;;;;;;;43.10;26.67;;;;;;;0.57;100.00;95993.53;5074353;28;20585;-74
2022/12/21 11:44:45;;;;;;;41.43;24.90;;;;;;;0.65;100.00;95994.00;5074082;28;20448;-73